createdAt,value
2019-06-20T00:02:56.717Z,41.4
2019-06-20T00:06:02.973Z,41.4
2019-06-20T00:09:09.130Z,41.5
2019-06-20T00:12:15.405Z,41.5
2019-06-20T00:15:21.569Z,41.5
2019-06-20T00:18:27.786Z,41.4
2019-06-20T00:21:34.033Z,41.5
2019-06-20T00:24:40.277Z,41.5
2019-06-20T00:27:46.537Z,41.7
2019-06-20T00:30:52.668Z,41.7
2019-06-20T00:33:58.875Z,41.5
2019-06-20T00:37:05.031Z,41.7
2019-06-20T00:40:11.199Z,41.5
2019-06-20T00:43:18.998Z,41.5
2019-06-20T00:46:25.152Z,41.5
2019-06-20T00:49:31.436Z,41.7
2019-06-20T00:52:37.563Z,41.4
2019-06-20T00:55:43.867Z,41.6
2019-06-20T00:58:50.046Z,41.6
2019-06-20T01:01:56.308Z,41.6
2019-06-20T01:05:02.561Z,41.6
2019-06-20T01:08:08.824Z,41.6
2019-06-20T01:11:15.093Z,41.7
2019-06-20T01:14:21.237Z,41.7
2019-06-20T01:17:27.431Z,41.8
2019-06-20T01:20:33.697Z,41.8
2019-06-20T01:23:40.062Z,41.8
2019-06-20T01:26:46.291Z,41.8
2019-06-20T01:29:52.492Z,41.8
2019-06-20T01:32:58.669Z,41.8
2019-06-20T01:36:04.816Z,41.9
2019-06-20T01:39:10.987Z,41.9
2019-06-20T01:42:17.266Z,41.8
2019-06-20T01:45:23.431Z,41.9
2019-06-20T01:48:29.575Z,41.8
2019-06-20T01:51:35.746Z,41.8
2019-06-20T01:54:42.014Z,41.9
2019-06-20T01:57:48.313Z,42
2019-06-20T02:00:54.494Z,42
2019-06-20T02:04:00.745Z,42
2019-06-20T02:07:06.991Z,42
2019-06-20T02:10:13.204Z,41.9
2019-06-20T02:13:19.427Z,42
2019-06-20T02:16:25.789Z,42
2019-06-20T02:19:31.935Z,41.9
2019-06-20T02:22:38.108Z,42
2019-06-20T02:25:44.267Z,42
2019-06-20T02:28:50.555Z,42.1
2019-06-20T02:31:56.687Z,42
2019-06-20T02:35:02.982Z,41.9
2019-06-20T02:38:09.259Z,42
2019-06-20T02:41:15.513Z,42
2019-06-20T02:44:31.234Z,42.1
2019-06-20T02:47:37.359Z,42
2019-06-20T02:50:43.524Z,41.9
2019-06-20T02:53:49.713Z,42.1
2019-06-20T02:56:55.955Z,42.1
2019-06-20T03:00:02.543Z,42
2019-06-20T03:03:08.806Z,42
2019-06-20T03:06:15.066Z,42
2019-06-20T03:09:21.237Z,42.1
2019-06-20T03:12:30.265Z,42
2019-06-20T03:15:36.430Z,41.9
2019-06-20T03:18:42.573Z,42
2019-06-20T03:21:48.758Z,42
2019-06-20T03:24:54.922Z,41.9
2019-06-20T03:28:01.084Z,41.7
2019-06-20T03:31:07.251Z,41.6
2019-06-20T03:34:13.795Z,41.5
2019-06-20T03:37:20.091Z,41.4
2019-06-20T03:40:26.459Z,41.3
2019-06-20T03:43:32.604Z,41.1
2019-06-20T03:46:38.891Z,41.1
2019-06-20T03:49:45.172Z,41
2019-06-20T03:52:51.323Z,40.9
2019-06-20T03:55:57.463Z,40.5
2019-06-20T03:59:03.763Z,40.2
2019-06-20T04:02:10.029Z,40.1
2019-06-20T04:05:16.287Z,40
2019-06-20T04:08:22.456Z,39.9
2019-06-20T04:11:28.596Z,39.8
2019-06-20T04:14:34.895Z,39.7
2019-06-20T04:17:41.057Z,39.5
2019-06-20T04:20:47.217Z,39.3
2019-06-20T04:23:53.485Z,39.2
2019-06-20T04:26:59.612Z,38.6
2019-06-20T04:30:05.983Z,38.1
2019-06-20T04:33:12.792Z,37.6
2019-06-20T04:36:18.961Z,37.5
2019-06-20T04:39:25.252Z,37.4
2019-06-20T04:42:31.406Z,37.2
2019-06-20T04:45:37.760Z,37.8
2019-06-20T04:48:44.008Z,38.1
2019-06-20T04:51:50.192Z,38.2
2019-06-20T04:54:56.359Z,38.3
2019-06-20T04:58:02.599Z,38.7
2019-06-20T05:01:08.791Z,38.5
2019-06-20T05:04:15.192Z,38.7
2019-06-20T05:07:21.437Z,38.6
2019-06-20T05:10:27.771Z,38.9
2019-06-20T05:13:33.893Z,39.2
2019-06-20T05:16:40.029Z,38.9
2019-06-20T05:19:46.295Z,38.8
2019-06-20T05:22:52.553Z,39.1
2019-06-20T05:25:59.095Z,39.1
2019-06-20T05:29:06.218Z,38.9
2019-06-20T05:32:12.543Z,38.8
2019-06-20T05:35:18.930Z,38.8
2019-06-20T05:38:25.050Z,38.9
2019-06-20T05:41:31.286Z,39.3
2019-06-20T05:44:37.415Z,38.6
2019-06-20T05:47:43.718Z,38.6
2019-06-20T05:50:49.952Z,38.7
2019-06-20T05:53:56.093Z,39
2019-06-20T05:57:05.188Z,38.6
2019-06-20T06:00:11.351Z,38.7
2019-06-20T06:03:17.514Z,38.7
2019-06-20T06:06:24.712Z,38.7
2019-06-20T06:09:30.908Z,38.9
2019-06-20T06:12:37.132Z,39.1
2019-06-20T06:15:43.261Z,39.3
2019-06-20T06:18:49.568Z,38.7
2019-06-20T06:21:55.830Z,39.2
2019-06-20T06:25:02.226Z,39.3
2019-06-20T06:28:12.149Z,39.3
2019-06-20T06:31:18.652Z,38.8
2019-06-20T06:34:24.858Z,39.1
2019-06-20T06:37:31.282Z,39.3
2019-06-20T06:40:37.527Z,38.8
2019-06-20T06:43:44.063Z,39
2019-06-20T06:46:59.662Z,38.7
2019-06-20T06:50:05.915Z,38.8
2019-06-20T06:53:12.225Z,39.3
2019-06-20T06:56:18.364Z,38.7
2019-06-20T06:59:24.555Z,39.1
2019-06-20T07:02:30.847Z,38.7
2019-06-20T07:05:37.071Z,38.9
2019-06-20T07:08:43.308Z,39
2019-06-20T12:30:50.214Z,38.9
2019-06-20T12:31:45.466Z,38.8
2019-06-20T12:34:53.451Z,38.8
2019-06-20T12:37:59.677Z,38.7
2019-06-20T12:41:06.044Z,38.8
2019-06-20T12:44:12.171Z,38.9
2019-06-20T12:47:18.388Z,38.9
2019-06-20T12:50:24.859Z,39.4
2019-06-20T12:53:31.162Z,39.4
2019-06-20T12:56:42.188Z,39.2
2019-06-20T12:59:52.028Z,39.3
2019-06-20T13:02:58.219Z,39.4
2019-06-20T13:06:04.394Z,39.5
2019-06-20T13:09:13.285Z,39.8
2019-06-20T13:12:19.425Z,39.5
2019-06-20T13:15:25.627Z,39.4
2019-06-20T13:18:31.894Z,39.5
2019-06-20T13:21:40.483Z,39.4
2019-06-20T13:24:51.048Z,39.7
2019-06-20T13:27:57.246Z,39.6
2019-06-20T13:31:03.518Z,39.6
2019-06-20T13:34:09.695Z,39.8
2019-06-20T13:37:16.368Z,39.7
2019-06-20T13:40:22.502Z,39.8
2019-06-20T13:43:28.813Z,39.9
2019-06-20T13:46:34.922Z,39.9
2019-06-20T13:49:43.212Z,39.8
2019-06-20T13:52:52.202Z,39.9
2019-06-20T13:55:58.461Z,39.8
2019-06-20T13:59:04.626Z,39.8
2019-06-20T14:02:14.576Z,39.9
2019-06-20T14:05:21.168Z,40
2019-06-20T14:08:27.373Z,40
2019-06-20T14:11:33.593Z,40.1
2019-06-20T14:14:43.851Z,40.3
2019-06-20T14:17:55.438Z,40.6
2019-06-20T14:21:01.856Z,40.6
2019-06-20T14:24:08.199Z,40.5
2019-06-20T14:27:14.439Z,40.6
2019-06-20T14:30:20.620Z,40.5
2019-06-20T14:33:26.769Z,40.4
2019-06-20T14:36:36.432Z,40.4
2019-06-20T14:39:44.813Z,40.5
2019-06-20T14:42:52.320Z,40.4
2019-06-20T14:46:02.533Z,40.4
2019-06-20T14:49:08.763Z,40.4
2019-06-20T14:52:17.796Z,40.4
2019-06-20T14:55:23.937Z,40.4
2019-06-20T14:58:30.325Z,40.3
2019-06-20T15:01:36.696Z,40.3
2019-06-20T15:04:46.203Z,40.3
2019-06-20T15:07:57.777Z,40.2
2019-06-20T15:11:04.101Z,40.3
2019-06-20T15:14:10.375Z,40.1
2019-06-20T15:17:16.539Z,40.2
2019-06-20T15:20:22.800Z,40.2
2019-06-20T15:23:28.971Z,40.1
2019-06-20T15:26:35.232Z,40.3
2019-06-20T15:29:41.387Z,40.2
2019-06-20T15:33:09.238Z,40.1
2019-06-20T15:36:16.388Z,40.1
2019-06-20T15:39:22.615Z,40
2019-06-20T15:42:28.880Z,40.1
2019-06-20T15:45:35.008Z,39.9
2019-06-20T15:48:41.224Z,40.2
2019-06-20T15:51:47.344Z,40
2019-06-20T15:54:53.740Z,40
2019-06-20T15:57:59.905Z,40
2019-06-20T16:01:06.067Z,40
2019-06-20T16:04:12.336Z,40
2019-06-20T16:07:18.499Z,40
2019-06-20T16:10:24.643Z,40
2019-06-20T16:13:33.592Z,39.9
2019-06-20T16:16:39.756Z,39.9
2019-06-20T16:19:45.920Z,39.9
2019-06-20T16:22:52.134Z,39.9
2019-06-20T16:25:58.352Z,39.8
2019-06-20T16:29:04.627Z,39.8
2019-06-20T16:32:10.897Z,39.8
2019-06-20T16:35:17.076Z,39.8
2019-06-20T16:38:23.320Z,39.8
2019-06-20T16:41:29.496Z,39.8
2019-06-20T16:44:35.612Z,39.7
2019-06-20T16:47:41.826Z,39.7
2019-06-20T16:50:48.076Z,39.7
2019-06-20T16:53:54.244Z,39.8
2019-06-20T16:57:00.413Z,39.7
2019-06-20T17:00:06.949Z,39.7
2019-06-20T17:03:13.150Z,39.7
2019-06-20T17:06:19.413Z,39.7
2019-06-20T17:09:25.581Z,39.8
2019-06-20T17:12:31.945Z,39.8
2019-06-20T17:15:38.085Z,39.8
2019-06-20T17:18:44.375Z,39.9
2019-06-20T17:21:50.539Z,39.7
2019-06-20T17:24:56.754Z,39.7
2019-06-20T17:28:03.513Z,39.7
2019-06-20T17:31:09.854Z,39.7
2019-06-20T17:34:16.015Z,39.7
2019-06-20T17:37:22.385Z,39.8
2019-06-20T17:40:28.514Z,39.9
2019-06-20T17:43:34.711Z,39.7
2019-06-20T17:46:40.879Z,39.9
2019-06-20T17:49:47.049Z,39.8
2019-06-20T17:52:53.322Z,39.9
2019-06-20T17:55:59.575Z,40
2019-06-20T17:59:05.840Z,40
2019-06-20T18:02:14.859Z,39.8
2019-06-20T18:05:21.036Z,40.1
2019-06-20T18:08:27.302Z,39.9
2019-06-20T18:11:33.607Z,39.9
2019-06-20T18:14:39.914Z,40.1
2019-06-20T18:17:46.206Z,40
2019-06-20T18:20:52.477Z,39.9
2019-06-20T18:23:58.609Z,40
2019-06-20T18:27:05.007Z,40.1
2019-06-20T18:30:11.145Z,40
2019-06-20T18:33:17.335Z,40.1
2019-06-20T18:36:23.605Z,40.1
2019-06-20T18:39:29.729Z,40.1
2019-06-20T18:42:35.945Z,40.1
2019-06-20T18:45:42.297Z,40.2
2019-06-20T18:48:48.573Z,40.2
2019-06-20T18:51:57.910Z,40.1
2019-06-20T18:55:04.033Z,40.1
2019-06-20T18:58:10.241Z,40.2
2019-06-20T19:01:16.435Z,40.2
2019-06-20T19:04:22.655Z,40.2
2019-06-20T19:07:28.854Z,40.1
2019-06-20T19:10:35.098Z,40.2
2019-06-20T19:13:44.131Z,40.2
2019-06-20T19:16:50.272Z,40.4
2019-06-20T19:19:56.676Z,40.4
2019-06-20T19:23:02.870Z,40.4
2019-06-20T19:26:09.200Z,40.5
2019-06-20T19:29:15.477Z,40.4
2019-06-20T19:32:21.844Z,40.4
2019-06-20T19:35:28.211Z,40.4
2019-06-20T19:38:34.361Z,40.4
2019-06-20T19:41:40.731Z,40.3
2019-06-20T19:44:46.894Z,40.4
2019-06-20T19:47:53.023Z,40.4
2019-06-20T19:50:59.224Z,40.4
2019-06-20T19:54:05.493Z,40.4
2019-06-20T19:57:11.670Z,40.5
2019-06-20T20:00:17.833Z,40.4
2019-06-20T20:03:24.193Z,40.5
2019-06-20T20:06:30.560Z,40.4
2019-06-20T20:09:36.721Z,40.4
2019-06-20T20:12:42.988Z,40.4
2019-06-20T20:15:49.152Z,40.4
2019-06-20T20:18:55.427Z,40.3
2019-06-20T20:22:01.688Z,40.3
2019-06-20T20:25:11.628Z,40.4
2019-06-20T20:28:17.973Z,40.4
2019-06-20T20:31:24.173Z,40.2
2019-06-20T20:34:30.301Z,40.3
2019-06-20T20:37:36.501Z,40.4
2019-06-20T20:40:42.637Z,40.4
2019-06-20T20:43:49.338Z,40.2
2019-06-20T20:46:55.468Z,40.3
2019-06-20T20:50:01.691Z,40.4
2019-06-20T20:53:07.938Z,40.4
2019-06-20T20:56:14.268Z,40.5
2019-06-20T20:59:20.465Z,40.4
2019-06-20T21:02:26.597Z,40.7
2019-06-20T21:05:32.794Z,40.7
2019-06-20T21:08:58.238Z,40.7
2019-06-20T21:12:04.477Z,40.6
2019-06-20T21:15:10.642Z,40.6
2019-06-20T21:18:16.774Z,40.7
2019-06-20T21:21:22.973Z,40.8
2019-06-20T21:24:29.333Z,40.7
2019-06-20T21:27:35.538Z,40.7
2019-06-20T21:30:41.681Z,40.7
2019-06-20T21:33:47.850Z,40.9
2019-06-20T21:36:54.101Z,40.7
2019-06-20T21:40:00.229Z,40.7
2019-06-20T21:43:06.528Z,40.9
2019-06-20T21:46:12.668Z,40.9
2019-06-20T21:49:18.791Z,40.9
2019-06-20T21:52:25.135Z,40.9
2019-06-20T21:55:31.291Z,41
2019-06-20T21:58:37.462Z,40.9
2019-06-20T22:01:43.581Z,41
2019-06-20T22:04:55.416Z,41
2019-06-20T22:08:04.575Z,41.2
2019-06-20T22:11:10.717Z,41
2019-06-20T22:14:16.988Z,41.1
2019-06-20T22:17:23.204Z,41.1
2019-06-20T22:20:29.533Z,40.9
2019-06-20T22:23:35.887Z,41.1
2019-06-20T22:26:42.080Z,41.2
2019-06-20T22:29:48.320Z,41.2
2019-06-20T22:32:54.437Z,41.1
2019-06-20T22:36:00.637Z,41.1
2019-06-20T22:39:06.904Z,41.4
2019-06-20T22:42:13.170Z,41.3
2019-06-20T22:45:19.334Z,41.2
2019-06-20T22:48:25.629Z,41.3
2019-06-20T22:51:31.790Z,41.3
2019-06-20T22:54:38.039Z,41.2
2019-06-20T22:57:44.206Z,41.3
2019-06-20T23:00:50.624Z,41.1
2019-06-20T23:03:56.838Z,41.3
2019-06-20T23:07:03.132Z,41.3
2019-06-20T23:10:11.625Z,41.3
2019-06-20T23:13:17.890Z,41.2
2019-06-20T23:16:24.153Z,41.3
2019-06-20T23:19:30.278Z,41.4
2019-06-20T23:22:36.488Z,41.3
2019-06-20T23:25:42.676Z,41.4
2019-06-20T23:28:48.872Z,41.5
2019-06-20T23:31:55.290Z,41.4
2019-06-20T23:35:01.556Z,41.5
2019-06-20T23:38:07.820Z,41.4
2019-06-20T23:41:13.979Z,41.3
2019-06-20T23:44:20.147Z,41.4
2019-06-20T23:47:26.415Z,41.4
2019-06-20T23:50:32.579Z,41.5
2019-06-20T23:53:38.845Z,41.5
2019-06-20T23:56:45.004Z,41.5
2019-06-20T23:59:51.269Z,41.4
